Latest Coastal Weather Observations for Croker Island Airport

IDD60701

Issued at 4:35 am CST Thursday 28 August 2014 (issued every 10 minutes, with the page automatically refreshed every 10 minutes)

About coastal observations | Map of coastal stations | Coastal observations for NT | Marine services | Other Formats
Station Details ID: 014308 Name: CROKER ISLAND AIRPORT Lat: -11.16 Lon: 132.48 Height: 9.2 m
Data from the previous 72 hours. | See also: Recent months for locations in Northern Territory
Date/Time
CST
Temp

°C
Wind Pressure Rain
since 9am
mm
Weather Cloud Vis
km
Sea
Height
m
Swell
Dir
 
Speed
knots
Gust
knots
hPa Trend Height
m
Period
s
Dir
28/04:30am 20.5 ESE 5 7 1012.9 - - - - - - - - -
28/04:00am 21.1 ESE 5 6 1013.0 - - - - - - - - -
28/03:30am 22.0 ESE 6 9 1013.1 - - - - - - - - -
28/03:00am 22.6 ESE 6 9 1013.3 - - - - - - - - -
28/02:30am 23.2 ESE 8 13 1013.3 - - - - - - - - -
28/02:00am 23.8 ESE 10 14 1013.4 - - - - - - - - -
28/01:30am 23.9 ESE 9 14 1013.7 - - - - - - - - -
28/01:00am 24.0 E 9 14 1013.7 - - - - - - - - -
28/12:30am 24.2 E 10 15 1013.9 - - - - - - - - -
28/12:00am 23.7 E 8 11 1013.9 - - - - - - - - -
 
Date/Time
CST
Temp

°C
Wind Pressure Rain
since 9am
mm
Weather Cloud Vis
km
Sea
Height
m
Swell
Dir
 
Speed
knots
Gust
knots
hPa Trend Height
m
Period
s
Dir
27/11:30pm 23.4 E 6 8 1013.8 - - - - - - - - -
27/11:00pm 23.8 E 7 10 1013.7 - - - - - - - - -
27/10:30pm 23.6 E 7 10 1013.7 - - - - - - - - -
27/10:00pm 23.7 E 7 9 1013.7 - - - - - - - - -
27/09:30pm 23.4 E 6 9 1013.7 - - - - - - - - -
27/09:00pm 23.5 E 6 8 1013.4 - - - - - - - - -
27/08:30pm 23.4 E 5 8 1013.0 - - - - - - - - -
27/08:00pm 23.6 ENE 7 9 1012.5 - - - - - - - - -
27/07:30pm 23.9 ENE 6 9 1012.1 - - - - - - - - -
27/07:00pm 24.6 ENE 7 10 1011.8 - - - - - - - - -
27/06:30pm 25.4 ENE 8 12 1011.4 - - - - - - - - -
27/06:00pm 26.6 ENE 11 16 1011.3 - - - - - - - - -
27/05:30pm 28.0 ENE 12 17 1011.2 - - - - - - - - -
27/05:00pm 28.5 E 12 18 1011.2 - - - - - - - - -
27/04:30pm 29.4 E 12 19 1011.3 - - - - - - - - -
27/04:00pm 29.1 E 13 19 1011.4 - - - - - - - - -
27/03:30pm 29.8 E 13 22 1011.4 - - - - - - - - -
27/03:00pm 30.1 E 15 22 1011.5 - - - - - - - - -
27/02:30pm 30.1 E 15 22 1011.6 - - - - - - - - -
27/02:00pm 29.9 E 16 25 1011.9 - - - - - - - - -
27/01:33pm 30.4 ESE 15 26 1012.2 - - - - - - - - -
27/01:30pm 30.2 ESE 14 26 1012.2 - - - - - - - - -
27/01:10pm 30.2 ESE 15 25 1012.6 - - - - - - - - -
27/01:00pm 29.7 ESE 16 23 1012.7 - - - - - - - - -
27/12:30pm 29.9 ESE 15 24 1013.0 - - - - - - - - -
27/12:00pm 29.4 ESE 14 21 1013.4 - - - - - - - - -
27/11:30am 29.1 E 16 25 1013.7 - - - - - - - - -
27/11:00am 28.9 ESE 16 23 1013.9 - - - - - - - - -
27/10:30am 28.6 ESE 16 24 1014.1 - - - - - - - - -
27/10:00am 27.8 ESE 17 24 1014.2 - - - - - - - - -
27/09:30am 27.5 E 13 21 1014.3 - - - - - - - - -
27/09:00am 26.5 ESE 14 20 1014.4 - - - - - - - - -
27/08:30am 25.7 ESE 11 16 1014.2 - - - - - - - - -
27/08:00am 24.5 E 9 15 1013.9 - - - - - - - - -
27/07:30am 22.7 ESE 5 8 1013.7 - - - - - - - - -
27/07:00am 21.8 ESE 6 10 1013.6 - - - - - - - - -
27/06:30am 22.1 E 7 13 1013.1 - - - - - - - - -
27/06:00am 22.3 E 9 13 1012.9 - - - - - - - - -
27/05:30am 22.2 E 8 12 1012.7 - - - - - - - - -
27/05:00am 22.2 E 7 10 1012.5 - - - - - - - - -
27/04:30am 22.4 E 7 11 1012.4 - - - - - - - - -
27/04:00am 22.6 E 7 12 1012.4 - - - - - - - - -
27/03:30am 22.4 E 7 10 1012.2 - - - - - - - - -
27/03:00am 22.1 ESE 6 9 1012.3 - - - - - - - - -
27/02:30am 20.8 ESE 4 5 1012.6 - - - - - - - - -
27/02:00am 20.4 SE 3 4 1012.8 - - - - - - - - -
27/01:30am 20.3 E 3 4 1013.0 - - - - - - - - -
27/01:00am 20.6 SE 3 4 1013.2 - - - - - - - - -
27/12:30am 20.4 SE 3 3 1013.4 - - - - - - - - -
27/12:00am 20.3 SE 3 3 1013.4 - - - - - - - - -
 
Date/Time
CST
Temp

°C
Wind Pressure Rain
since 9am
mm
Weather Cloud Vis
km
Sea
Height
m
Swell
Dir
 
Speed
knots
Gust
knots
hPa Trend Height
m
Period
s
Dir
26/11:30pm 20.0 ESE 2 2 1013.4 - - - - - - - - -
26/11:00pm 20.5 ESE 3 3 1013.3 - - - - - - - - -
26/10:30pm 21.1 SE 3 4 1013.2 - - - - - - - - -
26/10:00pm 21.4 SSE 3 4 1013.1 - - - - - - - - -
26/09:30pm 21.5 SSE 3 4 1013.0 - - - - - - - - -
26/09:00pm 21.3 SSE 2 2 1012.6 - - - - - - - - -
26/08:30pm 21.8 E 1 2 1012.4 - - - - - - - - -
26/08:00pm 22.5 ESE 2 4 1012.2 - - - - - - - - -
26/07:30pm 23.4 E 1 3 1011.7 - - - - - - - - -
26/07:00pm 24.8 ENE 3 5 1011.2 - - - - - - - - -
26/06:30pm 26.1 ENE 8 11 1010.9 - - - - - - - - -
26/06:00pm 27.4 ENE 9 14 1010.8 - - - - - - - - -
26/05:30pm 28.2 E 11 17 1010.8 - - - - - - - - -
26/05:00pm 29.0 E 12 19 1010.8 - - - - - - - - -
26/04:30pm 29.6 E 12 16 1010.9 - - - - - - - - -
26/04:00pm 29.8 E 11 17 1011.0 - - - - - - - - -
26/03:30pm 30.3 E 12 17 1011.2 - - - - - - - - -
26/03:00pm 30.5 E 12 18 1011.4 - - - - - - - - -
26/02:30pm 31.4 E 13 23 1011.6 - - - - - - - - -
26/02:00pm 31.2 E 13 20 1011.9 - - - - - - - - -
26/01:30pm 31.1 ESE 13 20 1012.3 - - - - - - - - -
26/01:00pm 30.4 E 13 21 1012.7 - - - - - - - - -
26/12:30pm 30.2 ESE 15 24 1013.1 - - - - - - - - -
26/12:00pm 29.6 ESE 14 23 1013.6 - - - - - - - - -
26/11:30am 29.5 ESE 17 24 1014.0 - - - - - - - - -
26/11:00am 29.3 ESE 14 21 1014.4 - - - - - - - - -
26/10:30am 29.0 E 15 22 1014.6 - - - - - - - - -
26/10:00am 28.5 ESE 13 20 1014.9 - - - - - - - - -
26/09:30am 27.5 ESE 12 19 1015.1 - - - - - - - - -
26/09:00am 26.3 ESE 10 17 1015.1 - - - - - - - - -
26/08:30am 25.6 ESE 10 14 1014.8 - - - - - - - - -
26/08:00am 24.1 ESE 6 9 1014.6 - - - - - - - - -
26/07:30am 22.3 ESE 7 10 1014.2 - - - - - - - - -
26/07:00am 21.4 ESE 8 11 1013.9 - - - - - - - - -
26/06:30am 21.2 ESE 6 9 1013.4 - - - - - - - - -
26/06:00am 21.4 SE 6 9 1013.1 - - - - - - - - -
26/05:30am 21.6 ESE 6 8 1012.8 - - - - - - - - -
26/05:00am 22.2 SE 7 10 1012.6 - - - - - - - - -
26/04:30am 22.1 SE 6 9 1012.5 - - - - - - - - -
26/04:00am 21.8 SE 5 7 1012.7 - - - - - - - - -
26/03:30am 22.3 SE 5 7 1012.7 - - - - - - - - -
26/03:00am 23.2 ESE 8 11 1012.8 - - - - - - - - -
26/02:30am 23.5 ESE 8 14 1012.9 - - - - - - - - -
26/02:00am 23.4 ESE 8 12 1013.1 - - - - - - - - -
26/01:30am 23.8 ESE 8 12 1013.2 - - - - - - - - -
26/01:00am 23.9 ESE 8 12 1013.5 - - - - - - - - -
26/12:30am 24.3 E 9 14 1013.5 - - - - - - - - -
26/12:00am 24.5 E 10 14 1013.6 - - - - - - - - -
 
Date/Time
CST
Temp

°C
Wind Pressure Rain
since 9am
mm
Weather Cloud Vis
km
Sea
Height
m
Swell
Dir
 
Speed
knots
Gust
knots
hPa Trend Height
m
Period
s
Dir
25/11:30pm 24.5 E 9 14 1013.7 - - - - - - - - -
25/11:00pm 23.5 E 6 10 1013.8 - - - - - - - - -
25/10:30pm 22.5 E 3 5 1013.8 - - - - - - - - -
25/10:00pm 22.6 ESE 2 3 1013.6 - - - - - - - - -
25/09:30pm 22.6 SE 3 4 1013.3 - - - - - - - - -
25/09:00pm 22.6 ESE 2 4 1013.2 - - - - - - - - -
25/08:30pm 23.2 ESE 4 5 1013.0 - - - - - - - - -
25/08:00pm 23.1 ESE 2 3 1012.8 - - - - - - - - -
25/07:30pm 24.3 E 3 5 1012.4 - - - - - - - - -
25/07:00pm 24.8 E 3 5 1012.3 - - - - - - - - -
25/06:30pm 25.8 E 4 8 1011.8 - - - - - - - - -
25/06:00pm 27.0 ENE 7 11 1011.4 - - - - - - - - -
25/05:30pm 27.5 ENE 11 17 1011.3 - - - - - - - - -
25/05:00pm 28.5 ENE 12 17 1011.4 - - - - - - - - -
25/04:30pm 28.9 ENE 13 18 1011.2 - - - - - - - - -
25/04:00pm 29.0 ENE 13 19 1011.5 - - - - - - - - -
25/03:30pm 29.5 ENE 13 21 1011.6 - - - - - - - - -
25/03:00pm 29.6 E 15 20 1011.9 - - - - - - - - -
25/02:30pm 29.1 E 16 22 1012.3 - - - - - - - - -
25/02:00pm 30.1 E 15 21 1012.7 - - - - - - - - -
25/01:30pm 30.4 E 13 21 1013.0 - - - - - - - - -
25/01:00pm 30.4 E 14 23 1013.4 - - - - - - - - -
25/12:30pm 30.1 E 11 18 1013.7 - - - - - - - - -
25/12:00pm 30.2 ESE 13 21 1014.1 - - - - - - - - -
25/11:30am 30.2 E 12 18 1014.5 - - - - - - - - -
25/11:00am 29.6 E 12 16 1014.9 - - - - - - - - -
25/10:30am 29.3 ESE 11 16 1015.1 - - - - - - - - -
25/10:00am 28.7 ESE 10 15 1015.3 - - - - - - - - -
25/09:30am 28.0 E 9 12 1015.2 - - - - - - - - -
25/09:00am 26.4 ESE 9 13 1015.3 - - - - - - - - -
25/08:30am 25.6 ESE 5 10 1015.1 - - - - - - - - -
25/08:00am 23.5 ESE 3 4 1014.8 - - - - - - - - -
25/07:30am 20.7 ESE 3 4 1014.5 - - - - - - - - -
25/07:00am 18.9 ESE 3 4 1014.3 - - - - - - - - -
25/06:30am 19.4 ESE 3 4 1013.9 - - - - - - - - -
25/06:00am 19.9 SE 4 5 1013.6 - - - - - - - - -
25/05:30am 20.0 ESE 3 5 1013.5 - - - - - - - - -
25/05:00am 19.8 E 3 3 1013.3 - - - - - - - - -

Other Formats:

Comma delimited format used in spreadsheet applications
http://www.bom.gov.au/fwo/IDD60701/IDD60701.94108.axf

JavaScript Object Notation format (JSON) in row-major order
http://www.bom.gov.au/fwo/IDD60701/IDD60701.94108.json